sensor_id;sensor_type;location;lat;lon;timestamp;P1;durP1;ratioP1;P2;durP2;ratioP2
72261;SDS011;60173;52.112;8.648;2023-12-29T00:00:15;6.63;;;1.80;;
72261;SDS011;60173;52.112;8.648;2023-12-29T00:02:42;12.02;;;1.92;;
72261;SDS011;60173;52.112;8.648;2023-12-29T00:05:08;12.95;;;2.78;;
72261;SDS011;60173;52.112;8.648;2023-12-29T00:07:35;10.57;;;1.92;;
72261;SDS011;60173;52.112;8.648;2023-12-29T00:10:04;10.95;;;2.10;;
72261;SDS011;60173;52.112;8.648;2023-12-29T00:12:31;13.63;;;2.42;;
72261;SDS011;60173;52.112;8.648;2023-12-29T00:14:58;11.60;;;2.05;;
72261;SDS011;60173;52.112;8.648;2023-12-29T00:17:24;8.88;;;1.88;;
72261;SDS011;60173;52.112;8.648;2023-12-29T00:19:51;7.80;;;1.55;;
72261;SDS011;60173;52.112;8.648;2023-12-29T00:22:18;9.25;;;2.03;;
72261;SDS011;60173;52.112;8.648;2023-12-29T00:24:44;11.93;;;2.20;;
72261;SDS011;60173;52.112;8.648;2023-12-29T00:27:11;9.98;;;2.20;;
72261;SDS011;60173;52.112;8.648;2023-12-29T00:29:37;10.32;;;1.70;;
72261;SDS011;60173;52.112;8.648;2023-12-29T00:32:04;7.18;;;1.80;;
72261;SDS011;60173;52.112;8.648;2023-12-29T00:34:30;17.52;;;2.00;;
72261;SDS011;60173;52.112;8.648;2023-12-29T00:36:57;15.23;;;2.25;;
72261;SDS011;60173;52.112;8.648;2023-12-29T00:39:24;8.88;;;2.05;;
72261;SDS011;60173;52.112;8.648;2023-12-29T00:41:50;7.60;;;2.35;;
72261;SDS011;60173;52.112;8.648;2023-12-29T00:44:17;12.38;;;2.28;;
72261;SDS011;60173;52.112;8.648;2023-12-29T00:46:43;5.78;;;1.73;;
72261;SDS011;60173;52.112;8.648;2023-12-29T00:49:10;12.77;;;2.00;;
72261;SDS011;60173;52.112;8.648;2023-12-29T00:51:40;10.32;;;1.85;;
72261;SDS011;60173;52.112;8.648;2023-12-29T00:54:07;10.57;;;2.35;;
72261;SDS011;60173;52.112;8.648;2023-12-29T00:56:33;10.88;;;1.95;;
72261;SDS011;60173;52.112;8.648;2023-12-29T00:59:00;10.40;;;2.25;;
72261;SDS011;60173;52.112;8.648;2023-12-29T01:01:26;13.13;;;2.17;;
72261;SDS011;60173;52.112;8.648;2023-12-29T01:03:53;5.10;;;1.85;;
72261;SDS011;60173;52.112;8.648;2023-12-29T01:06:20;8.93;;;1.90;;
72261;SDS011;60173;52.112;8.648;2023-12-29T01:08:46;13.70;;;2.10;;
72261;SDS011;60173;52.112;8.648;2023-12-29T01:11:13;6.85;;;1.75;;
72261;SDS011;60173;52.112;8.648;2023-12-29T01:13:39;7.78;;;2.20;;
72261;SDS011;60173;52.112;8.648;2023-12-29T01:16:06;8.98;;;1.98;;
72261;SDS011;60173;52.112;8.648;2023-12-29T01:18:33;8.48;;;2.03;;
72261;SDS011;60173;52.112;8.648;2023-12-29T01:20:59;7.03;;;1.75;;
72261;SDS011;60173;52.112;8.648;2023-12-29T01:23:26;10.27;;;1.80;;
72261;SDS011;60173;52.112;8.648;2023-12-29T01:25:52;9.40;;;1.92;;
72261;SDS011;60173;52.112;8.648;2023-12-29T01:28:19;6.47;;;1.85;;
72261;SDS011;60173;52.112;8.648;2023-12-29T01:30:45;7.32;;;2.03;;
72261;SDS011;60173;52.112;8.648;2023-12-29T01:33:12;11.00;;;2.45;;
72261;SDS011;60173;52.112;8.648;2023-12-29T01:35:38;9.05;;;1.80;;
72261;SDS011;60173;52.112;8.648;2023-12-29T01:38:05;6.93;;;1.85;;
72261;SDS011;60173;52.112;8.648;2023-12-29T01:40:41;6.40;;;1.65;;
72261;SDS011;60173;52.112;8.648;2023-12-29T01:43:09;10.73;;;1.77;;
72261;SDS011;60173;52.112;8.648;2023-12-29T01:45:35;13.07;;;2.05;;
72261;SDS011;60173;52.112;8.648;2023-12-29T01:48:17;10.45;;;2.17;;
72261;SDS011;60173;52.112;8.648;2023-12-29T01:50:44;9.48;;;1.88;;
72261;SDS011;60173;52.112;8.648;2023-12-29T01:53:11;8.40;;;2.03;;
72261;SDS011;60173;52.112;8.648;2023-12-29T01:55:37;13.52;;;2.00;;
72261;SDS011;60173;52.112;8.648;2023-12-29T01:58:04;6.05;;;1.65;;
72261;SDS011;60173;52.112;8.648;2023-12-29T02:00:31;8.73;;;1.83;;
72261;SDS011;60173;52.112;8.648;2023-12-29T02:02:59;6.65;;;1.77;;
72261;SDS011;60173;52.112;8.648;2023-12-29T02:05:26;11.95;;;2.10;;
72261;SDS011;60173;52.112;8.648;2023-12-29T02:07:55;13.77;;;2.05;;
72261;SDS011;60173;52.112;8.648;2023-12-29T02:10:21;9.25;;;2.20;;
72261;SDS011;60173;52.112;8.648;2023-12-29T02:12:50;9.15;;;2.25;;
72261;SDS011;60173;52.112;8.648;2023-12-29T02:15:16;5.80;;;1.48;;
72261;SDS011;60173;52.112;8.648;2023-12-29T02:17:47;11.23;;;2.13;;
72261;SDS011;60173;52.112;8.648;2023-12-29T02:20:23;12.40;;;2.13;;
72261;SDS011;60173;52.112;8.648;2023-12-29T02:22:49;5.93;;;1.60;;
72261;SDS011;60173;52.112;8.648;2023-12-29T02:25:16;9.88;;;2.05;;
72261;SDS011;60173;52.112;8.648;2023-12-29T02:27:45;6.82;;;1.60;;
72261;SDS011;60173;52.112;8.648;2023-12-29T02:33:05;5.57;;;1.75;;
72261;SDS011;60173;52.112;8.648;2023-12-29T02:35:38;14.48;;;1.98;;
72261;SDS011;60173;52.112;8.648;2023-12-29T02:38:07;10.18;;;1.80;;
72261;SDS011;60173;52.112;8.648;2023-12-29T02:40:34;6.25;;;1.48;;
72261;SDS011;60173;52.112;8.648;2023-12-29T02:43:01;9.15;;;2.08;;
72261;SDS011;60173;52.112;8.648;2023-12-29T02:45:27;9.30;;;1.65;;
72261;SDS011;60173;52.112;8.648;2023-12-29T02:47:54;6.90;;;1.40;;
72261;SDS011;60173;52.112;8.648;2023-12-29T02:50:21;10.38;;;1.65;;
72261;SDS011;60173;52.112;8.648;2023-12-29T02:52:47;5.13;;;1.30;;
72261;SDS011;60173;52.112;8.648;2023-12-29T02:55:14;6.70;;;1.45;;
72261;SDS011;60173;52.112;8.648;2023-12-29T02:57:40;4.43;;;1.02;;
72261;SDS011;60173;52.112;8.648;2023-12-29T03:00:08;7.28;;;1.48;;
72261;SDS011;60173;52.112;8.648;2023-12-29T03:02:34;4.80;;;1.38;;
72261;SDS011;60173;52.112;8.648;2023-12-29T03:05:01;6.20;;;1.33;;
72261;SDS011;60173;52.112;8.648;2023-12-29T03:07:28;7.50;;;1.40;;
72261;SDS011;60173;52.112;8.648;2023-12-29T03:09:54;15.02;;;2.53;;
72261;SDS011;60173;52.112;8.648;2023-12-29T03:12:21;9.13;;;1.60;;
72261;SDS011;60173;52.112;8.648;2023-12-29T03:14:47;10.63;;;1.63;;
72261;SDS011;60173;52.112;8.648;2023-12-29T03:17:14;11.25;;;2.17;;
72261;SDS011;60173;52.112;8.648;2023-12-29T03:19:40;10.15;;;2.10;;
72261;SDS011;60173;52.112;8.648;2023-12-29T03:22:07;7.88;;;1.70;;
72261;SDS011;60173;52.112;8.648;2023-12-29T03:24:34;9.23;;;1.95;;
72261;SDS011;60173;52.112;8.648;2023-12-29T03:27:00;13.68;;;2.08;;
72261;SDS011;60173;52.112;8.648;2023-12-29T03:29:27;8.55;;;1.83;;
72261;SDS011;60173;52.112;8.648;2023-12-29T03:31:53;7.00;;;1.80;;
72261;SDS011;60173;52.112;8.648;2023-12-29T03:34:20;6.90;;;1.63;;
72261;SDS011;60173;52.112;8.648;2023-12-29T03:36:47;10.20;;;1.98;;
72261;SDS011;60173;52.112;8.648;2023-12-29T03:39:13;7.05;;;1.70;;
72261;SDS011;60173;52.112;8.648;2023-12-29T03:41:40;10.77;;;2.25;;
72261;SDS011;60173;52.112;8.648;2023-12-29T03:44:06;6.95;;;1.92;;
72261;SDS011;60173;52.112;8.648;2023-12-29T03:46:33;8.65;;;1.77;;
72261;SDS011;60173;52.112;8.648;2023-12-29T03:48:59;8.70;;;1.70;;
72261;SDS011;60173;52.112;8.648;2023-12-29T03:51:26;11.15;;;1.58;;
72261;SDS011;60173;52.112;8.648;2023-12-29T03:53:52;5.18;;;1.50;;
72261;SDS011;60173;52.112;8.648;2023-12-29T03:56:19;10.07;;;1.70;;
72261;SDS011;60173;52.112;8.648;2023-12-29T03:58:45;6.65;;;1.30;;
72261;SDS011;60173;52.112;8.648;2023-12-29T04:01:13;8.45;;;1.83;;
72261;SDS011;60173;52.112;8.648;2023-12-29T04:03:40;7.05;;;1.65;;
72261;SDS011;60173;52.112;8.648;2023-12-29T04:06:08;5.93;;;1.40;;
72261;SDS011;60173;52.112;8.648;2023-12-29T04:08:35;6.13;;;1.40;;
72261;SDS011;60173;52.112;8.648;2023-12-29T04:11:03;8.48;;;1.67;;
72261;SDS011;60173;52.112;8.648;2023-12-29T04:13:30;11.60;;;1.92;;
72261;SDS011;60173;52.112;8.648;2023-12-29T04:15:57;11.77;;;2.10;;
72261;SDS011;60173;52.112;8.648;2023-12-29T04:18:24;5.40;;;1.70;;
72261;SDS011;60173;52.112;8.648;2023-12-29T04:20:50;9.35;;;1.77;;
72261;SDS011;60173;52.112;8.648;2023-12-29T04:23:17;8.77;;;1.88;;
72261;SDS011;60173;52.112;8.648;2023-12-29T04:25:43;7.43;;;1.77;;
72261;SDS011;60173;52.112;8.648;2023-12-29T04:28:10;6.78;;;1.95;;
72261;SDS011;60173;52.112;8.648;2023-12-29T04:30:36;12.07;;;2.10;;
72261;SDS011;60173;52.112;8.648;2023-12-29T04:33:03;6.78;;;1.92;;
72261;SDS011;60173;52.112;8.648;2023-12-29T04:35:30;9.98;;;2.65;;
72261;SDS011;60173;52.112;8.648;2023-12-29T04:37:56;14.77;;;2.83;;
72261;SDS011;60173;52.112;8.648;2023-12-29T04:40:23;12.77;;;2.70;;
72261;SDS011;60173;52.112;8.648;2023-12-29T04:42:50;8.82;;;2.72;;
72261;SDS011;60173;52.112;8.648;2023-12-29T04:45:16;10.05;;;2.97;;
72261;SDS011;60173;52.112;8.648;2023-12-29T04:47:43;17.40;;;2.90;;
72261;SDS011;60173;52.112;8.648;2023-12-29T04:50:09;12.45;;;3.45;;
72261;SDS011;60173;52.112;8.648;2023-12-29T04:52:36;13.70;;;2.70;;
72261;SDS011;60173;52.112;8.648;2023-12-29T04:55:02;7.45;;;2.42;;
72261;SDS011;60173;52.112;8.648;2023-12-29T04:57:29;10.75;;;2.75;;
72261;SDS011;60173;52.112;8.648;2023-12-29T04:59:55;6.57;;;2.17;;
72261;SDS011;60173;52.112;8.648;2023-12-29T05:02:22;10.52;;;2.55;;
72261;SDS011;60173;52.112;8.648;2023-12-29T05:04:49;11.85;;;3.17;;
72261;SDS011;60173;52.112;8.648;2023-12-29T05:07:15;8.57;;;3.00;;
72261;SDS011;60173;52.112;8.648;2023-12-29T05:09:42;10.52;;;2.97;;
72261;SDS011;60173;52.112;8.648;2023-12-29T05:12:08;8.85;;;2.67;;
72261;SDS011;60173;52.112;8.648;2023-12-29T05:14:35;13.15;;;2.80;;
72261;SDS011;60173;52.112;8.648;2023-12-29T05:17:01;9.93;;;2.72;;
72261;SDS011;60173;52.112;8.648;2023-12-29T05:19:28;9.80;;;2.65;;
72261;SDS011;60173;52.112;8.648;2023-12-29T05:21:54;16.17;;;3.17;;
72261;SDS011;60173;52.112;8.648;2023-12-29T05:24:21;12.10;;;3.42;;
72261;SDS011;60173;52.112;8.648;2023-12-29T05:26:47;11.90;;;3.08;;
72261;SDS011;60173;52.112;8.648;2023-12-29T05:29:14;13.60;;;2.83;;
72261;SDS011;60173;52.112;8.648;2023-12-29T05:31:40;12.93;;;3.58;;
72261;SDS011;60173;52.112;8.648;2023-12-29T05:34:07;9.98;;;2.78;;
72261;SDS011;60173;52.112;8.648;2023-12-29T05:36:35;15.00;;;3.35;;
72261;SDS011;60173;52.112;8.648;2023-12-29T05:39:02;8.88;;;2.30;;
72261;SDS011;60173;52.112;8.648;2023-12-29T05:41:29;16.10;;;3.22;;
72261;SDS011;60173;52.112;8.648;2023-12-29T05:43:55;9.07;;;2.40;;
72261;SDS011;60173;52.112;8.648;2023-12-29T05:46:22;9.63;;;2.10;;
72261;SDS011;60173;52.112;8.648;2023-12-29T05:48:48;12.38;;;2.90;;
72261;SDS011;60173;52.112;8.648;2023-12-29T05:51:15;16.50;;;2.70;;
72261;SDS011;60173;52.112;8.648;2023-12-29T05:53:41;10.85;;;2.92;;
72261;SDS011;60173;52.112;8.648;2023-12-29T05:56:11;13.02;;;2.50;;
72261;SDS011;60173;52.112;8.648;2023-12-29T05:58:40;10.13;;;2.28;;
72261;SDS011;60173;52.112;8.648;2023-12-29T06:01:07;9.75;;;2.65;;
72261;SDS011;60173;52.112;8.648;2023-12-29T06:03:33;11.77;;;2.50;;
72261;SDS011;60173;52.112;8.648;2023-12-29T06:06:00;15.95;;;2.80;;
72261;SDS011;60173;52.112;8.648;2023-12-29T06:08:26;8.95;;;2.45;;
72261;SDS011;60173;52.112;8.648;2023-12-29T06:10:53;14.35;;;2.88;;
72261;SDS011;60173;52.112;8.648;2023-12-29T06:13:19;10.18;;;2.15;;
72261;SDS011;60173;52.112;8.648;2023-12-29T06:15:46;12.95;;;2.58;;
72261;SDS011;60173;52.112;8.648;2023-12-29T06:18:12;10.18;;;2.05;;
72261;SDS011;60173;52.112;8.648;2023-12-29T06:20:39;12.05;;;2.22;;
72261;SDS011;60173;52.112;8.648;2023-12-29T06:23:05;14.82;;;2.25;;
72261;SDS011;60173;52.112;8.648;2023-12-29T06:25:32;12.15;;;2.05;;
72261;SDS011;60173;52.112;8.648;2023-12-29T06:27:59;12.13;;;2.42;;
72261;SDS011;60173;52.112;8.648;2023-12-29T06:30:26;15.15;;;2.30;;
72261;SDS011;60173;52.112;8.648;2023-12-29T06:32:53;10.13;;;2.00;;
72261;SDS011;60173;52.112;8.648;2023-12-29T06:35:19;10.65;;;2.00;;
72261;SDS011;60173;52.112;8.648;2023-12-29T06:37:46;13.80;;;2.15;;
72261;SDS011;60173;52.112;8.648;2023-12-29T06:40:12;12.48;;;2.20;;
72261;SDS011;60173;52.112;8.648;2023-12-29T06:42:39;12.98;;;2.40;;
72261;SDS011;60173;52.112;8.648;2023-12-29T06:45:05;10.77;;;2.45;;
72261;SDS011;60173;52.112;8.648;2023-12-29T06:47:32;13.02;;;2.35;;
72261;SDS011;60173;52.112;8.648;2023-12-29T06:49:59;6.85;;;1.90;;
72261;SDS011;60173;52.112;8.648;2023-12-29T06:52:25;10.75;;;2.53;;
72261;SDS011;60173;52.112;8.648;2023-12-29T06:54:52;11.40;;;2.22;;
72261;SDS011;60173;52.112;8.648;2023-12-29T06:57:18;14.05;;;2.30;;
72261;SDS011;60173;52.112;8.648;2023-12-29T06:59:45;14.23;;;2.40;;
72261;SDS011;60173;52.112;8.648;2023-12-29T07:02:11;8.75;;;2.33;;
72261;SDS011;60173;52.112;8.648;2023-12-29T07:04:40;10.57;;;2.60;;
72261;SDS011;60173;52.112;8.648;2023-12-29T07:07:07;13.38;;;3.00;;
72261;SDS011;60173;52.112;8.648;2023-12-29T07:09:34;12.57;;;2.67;;
72261;SDS011;60173;52.112;8.648;2023-12-29T07:12:04;11.65;;;2.85;;
72261;SDS011;60173;52.112;8.648;2023-12-29T07:14:30;8.85;;;2.15;;
72261;SDS011;60173;52.112;8.648;2023-12-29T07:16:57;14.73;;;2.58;;
72261;SDS011;60173;52.112;8.648;2023-12-29T07:19:23;17.88;;;2.03;;
72261;SDS011;60173;52.112;8.648;2023-12-29T07:21:50;11.55;;;2.47;;
72261;SDS011;60173;52.112;8.648;2023-12-29T07:24:16;13.68;;;2.72;;
72261;SDS011;60173;52.112;8.648;2023-12-29T07:26:43;12.65;;;2.05;;
72261;SDS011;60173;52.112;8.648;2023-12-29T07:29:09;11.77;;;2.45;;
72261;SDS011;60173;52.112;8.648;2023-12-29T07:31:38;10.90;;;2.35;;
72261;SDS011;60173;52.112;8.648;2023-12-29T07:34:05;15.15;;;2.38;;
72261;SDS011;60173;52.112;8.648;2023-12-29T07:36:31;11.75;;;2.42;;
72261;SDS011;60173;52.112;8.648;2023-12-29T07:38:58;15.70;;;2.50;;
72261;SDS011;60173;52.112;8.648;2023-12-29T07:41:24;13.13;;;2.65;;
72261;SDS011;60173;52.112;8.648;2023-12-29T07:43:51;13.77;;;2.97;;
72261;SDS011;60173;52.112;8.648;2023-12-29T07:46:26;11.75;;;2.40;;
72261;SDS011;60173;52.112;8.648;2023-12-29T07:48:53;14.27;;;2.97;;
72261;SDS011;60173;52.112;8.648;2023-12-29T07:51:20;7.70;;;1.95;;
72261;SDS011;60173;52.112;8.648;2023-12-29T07:53:47;10.40;;;2.20;;
72261;SDS011;60173;52.112;8.648;2023-12-29T07:56:13;14.07;;;2.50;;
72261;SDS011;60173;52.112;8.648;2023-12-29T07:58:40;13.35;;;2.55;;
72261;SDS011;60173;52.112;8.648;2023-12-29T08:01:10;17.92;;;3.80;;
72261;SDS011;60173;52.112;8.648;2023-12-29T08:03:37;15.77;;;3.30;;
72261;SDS011;60173;52.112;8.648;2023-12-29T08:06:04;19.38;;;3.35;;
72261;SDS011;60173;52.112;8.648;2023-12-29T08:08:30;17.48;;;3.97;;
72261;SDS011;60173;52.112;8.648;2023-12-29T08:10:57;13.80;;;3.33;;
72261;SDS011;60173;52.112;8.648;2023-12-29T08:13:23;14.63;;;3.20;;
72261;SDS011;60173;52.112;8.648;2023-12-29T08:15:50;14.88;;;2.50;;
72261;SDS011;60173;52.112;8.648;2023-12-29T08:18:16;9.80;;;2.35;;
72261;SDS011;60173;52.112;8.648;2023-12-29T08:20:43;12.10;;;2.30;;
72261;SDS011;60173;52.112;8.648;2023-12-29T08:23:09;9.43;;;2.15;;
72261;SDS011;60173;52.112;8.648;2023-12-29T08:25:36;12.45;;;2.83;;
72261;SDS011;60173;52.112;8.648;2023-12-29T08:28:02;11.73;;;2.28;;
72261;SDS011;60173;52.112;8.648;2023-12-29T08:30:29;12.88;;;2.53;;
72261;SDS011;60173;52.112;8.648;2023-12-29T08:32:56;19.33;;;3.10;;
72261;SDS011;60173;52.112;8.648;2023-12-29T08:35:22;16.02;;;2.90;;
72261;SDS011;60173;52.112;8.648;2023-12-29T08:37:49;12.70;;;2.80;;
72261;SDS011;60173;52.112;8.648;2023-12-29T08:40:15;12.07;;;2.22;;
72261;SDS011;60173;52.112;8.648;2023-12-29T08:42:42;15.15;;;2.40;;
72261;SDS011;60173;52.112;8.648;2023-12-29T08:45:09;16.45;;;2.60;;
72261;SDS011;60173;52.112;8.648;2023-12-29T08:47:35;12.25;;;2.15;;
72261;SDS011;60173;52.112;8.648;2023-12-29T08:50:02;12.65;;;2.15;;
72261;SDS011;60173;52.112;8.648;2023-12-29T08:52:28;16.80;;;2.60;;
72261;SDS011;60173;52.112;8.648;2023-12-29T08:54:55;12.48;;;2.33;;
72261;SDS011;60173;52.112;8.648;2023-12-29T08:57:21;17.67;;;2.55;;
72261;SDS011;60173;52.112;8.648;2023-12-29T08:59:48;14.20;;;2.83;;
72261;SDS011;60173;52.112;8.648;2023-12-29T09:02:14;14.07;;;2.55;;
72261;SDS011;60173;52.112;8.648;2023-12-29T09:04:41;13.25;;;2.40;;
72261;SDS011;60173;52.112;8.648;2023-12-29T09:07:08;13.38;;;2.30;;
72261;SDS011;60173;52.112;8.648;2023-12-29T09:09:34;11.98;;;2.15;;
72261;SDS011;60173;52.112;8.648;2023-12-29T09:12:01;10.82;;;1.58;;
72261;SDS011;60173;52.112;8.648;2023-12-29T09:14:27;12.82;;;2.20;;
72261;SDS011;60173;52.112;8.648;2023-12-29T09:16:53;10.93;;;2.00;;
72261;SDS011;60173;52.112;8.648;2023-12-29T09:19:20;13.43;;;2.80;;
72261;SDS011;60173;52.112;8.648;2023-12-29T09:22:00;8.13;;;2.08;;
72261;SDS011;60173;52.112;8.648;2023-12-29T09:24:27;10.32;;;2.28;;
72261;SDS011;60173;52.112;8.648;2023-12-29T09:26:53;11.70;;;2.20;;
72261;SDS011;60173;52.112;8.648;2023-12-29T09:29:20;11.80;;;3.03;;
72261;SDS011;60173;52.112;8.648;2023-12-29T09:31:46;12.93;;;2.72;;
72261;SDS011;60173;52.112;8.648;2023-12-29T09:34:13;16.85;;;2.53;;
72261;SDS011;60173;52.112;8.648;2023-12-29T09:36:40;10.68;;;2.30;;
72261;SDS011;60173;52.112;8.648;2023-12-29T09:39:06;12.23;;;2.70;;
72261;SDS011;60173;52.112;8.648;2023-12-29T09:41:33;11.85;;;2.42;;
72261;SDS011;60173;52.112;8.648;2023-12-29T09:44:01;9.55;;;2.00;;
72261;SDS011;60173;52.112;8.648;2023-12-29T09:46:31;9.65;;;2.15;;
72261;SDS011;60173;52.112;8.648;2023-12-29T09:48:58;9.90;;;2.53;;
72261;SDS011;60173;52.112;8.648;2023-12-29T09:51:29;9.32;;;2.88;;
72261;SDS011;60173;52.112;8.648;2023-12-29T09:53:56;7.32;;;2.17;;
72261;SDS011;60173;52.112;8.648;2023-12-29T09:56:23;10.68;;;2.90;;
72261;SDS011;60173;52.112;8.648;2023-12-29T09:58:50;10.65;;;2.30;;
72261;SDS011;60173;52.112;8.648;2023-12-29T10:01:18;9.75;;;2.53;;
72261;SDS011;60173;52.112;8.648;2023-12-29T10:03:47;9.25;;;2.15;;
72261;SDS011;60173;52.112;8.648;2023-12-29T10:06:15;13.07;;;2.65;;
72261;SDS011;60173;52.112;8.648;2023-12-29T10:08:46;8.13;;;1.98;;
72261;SDS011;60173;52.112;8.648;2023-12-29T10:11:16;5.18;;;2.08;;
72261;SDS011;60173;52.112;8.648;2023-12-29T10:13:44;9.38;;;1.85;;
72261;SDS011;60173;52.112;8.648;2023-12-29T10:16:18;9.30;;;2.30;;
72261;SDS011;60173;52.112;8.648;2023-12-29T10:22:21;5.93;;;1.63;;
72261;SDS011;60173;52.112;8.648;2023-12-29T10:24:55;7.60;;;1.77;;
72261;SDS011;60173;52.112;8.648;2023-12-29T10:27:22;5.90;;;2.00;;
72261;SDS011;60173;52.112;8.648;2023-12-29T10:29:48;14.55;;;1.90;;
72261;SDS011;60173;52.112;8.648;2023-12-29T10:32:15;6.78;;;1.63;;
72261;SDS011;60173;52.112;8.648;2023-12-29T10:34:41;8.48;;;1.70;;
72261;SDS011;60173;52.112;8.648;2023-12-29T10:37:08;7.35;;;1.80;;
72261;SDS011;60173;52.112;8.648;2023-12-29T10:39:35;5.13;;;1.52;;
72261;SDS011;60173;52.112;8.648;2023-12-29T10:42:02;5.13;;;1.60;;
72261;SDS011;60173;52.112;8.648;2023-12-29T10:44:33;3.60;;;1.35;;
72261;SDS011;60173;52.112;8.648;2023-12-29T10:47:09;4.32;;;1.30;;
72261;SDS011;60173;52.112;8.648;2023-12-29T10:49:37;5.22;;;1.35;;
72261;SDS011;60173;52.112;8.648;2023-12-29T10:52:10;5.82;;;1.45;;
72261;SDS011;60173;52.112;8.648;2023-12-29T10:54:37;6.65;;;1.60;;
72261;SDS011;60173;52.112;8.648;2023-12-29T10:57:04;5.63;;;1.17;;
72261;SDS011;60173;52.112;8.648;2023-12-29T10:59:30;5.10;;;1.50;;
72261;SDS011;60173;52.112;8.648;2023-12-29T11:01:57;6.47;;;1.50;;
72261;SDS011;60173;52.112;8.648;2023-12-29T11:04:31;5.57;;;1.83;;
72261;SDS011;60173;52.112;8.648;2023-12-29T11:06:58;4.78;;;1.38;;
72261;SDS011;60173;52.112;8.648;2023-12-29T11:09:28;3.03;;;1.00;;
72261;SDS011;60173;52.112;8.648;2023-12-29T11:12:04;4.82;;;1.40;;
72261;SDS011;60173;52.112;8.648;2023-12-29T11:14:31;4.25;;;1.30;;
72261;SDS011;60173;52.112;8.648;2023-12-29T11:16:58;2.92;;;1.30;;
72261;SDS011;60173;52.112;8.648;2023-12-29T11:19:26;3.90;;;1.20;;
72261;SDS011;60173;52.112;8.648;2023-12-29T11:21:56;3.90;;;0.98;;
72261;SDS011;60173;52.112;8.648;2023-12-29T11:24:23;1.92;;;1.00;;
72261;SDS011;60173;52.112;8.648;2023-12-29T11:27:03;2.58;;;1.10;;
72261;SDS011;60173;52.112;8.648;2023-12-29T11:29:33;3.75;;;1.58;;
72261;SDS011;60173;52.112;8.648;2023-12-29T11:32:00;3.70;;;1.40;;
72261;SDS011;60173;52.112;8.648;2023-12-29T11:34:39;2.13;;;1.00;;
72261;SDS011;60173;52.112;8.648;2023-12-29T11:39:57;2.08;;;1.10;;
72261;SDS011;60173;52.112;8.648;2023-12-29T11:42:40;3.78;;;1.33;;
72261;SDS011;60173;52.112;8.648;2023-12-29T11:47:57;4.47;;;1.80;;
72261;SDS011;60173;52.112;8.648;2023-12-29T11:50:30;3.13;;;1.10;;
72261;SDS011;60173;52.112;8.648;2023-12-29T11:52:58;3.88;;;1.33;;
72261;SDS011;60173;52.112;8.648;2023-12-29T11:55:30;2.15;;;1.17;;
72261;SDS011;60173;52.112;8.648;2023-12-29T11:58:01;2.63;;;1.85;;
72261;SDS011;60173;52.112;8.648;2023-12-29T12:00:41;4.95;;;1.60;;
72261;SDS011;60173;52.112;8.648;2023-12-29T12:03:25;3.15;;;1.05;;
72261;SDS011;60173;52.112;8.648;2023-12-29T12:05:54;3.25;;;1.38;;
72261;SDS011;60173;52.112;8.648;2023-12-29T12:08:34;3.97;;;1.00;;
72261;SDS011;60173;52.112;8.648;2023-12-29T12:13:55;2.25;;;0.93;;
72261;SDS011;60173;52.112;8.648;2023-12-29T12:19:11;1.85;;;0.93;;
72261;SDS011;60173;52.112;8.648;2023-12-29T12:21:38;4.28;;;0.80;;
72261;SDS011;60173;52.112;8.648;2023-12-29T12:24:04;1.38;;;0.90;;
72261;SDS011;60173;52.112;8.648;2023-12-29T12:26:31;2.63;;;1.08;;
72261;SDS011;60173;52.112;8.648;2023-12-29T12:28:58;2.72;;;1.27;;
72261;SDS011;60173;52.112;8.648;2023-12-29T12:31:25;1.30;;;1.15;;
72261;SDS011;60173;52.112;8.648;2023-12-29T12:33:58;4.88;;;1.63;;
72261;SDS011;60173;52.112;8.648;2023-12-29T12:36:25;1.58;;;0.98;;
72261;SDS011;60173;52.112;8.648;2023-12-29T12:38:53;2.28;;;1.20;;
72261;SDS011;60173;52.112;8.648;2023-12-29T12:41:24;1.42;;;1.00;;
72261;SDS011;60173;52.112;8.648;2023-12-29T12:46:34;1.15;;;1.00;;
72261;SDS011;60173;52.112;8.648;2023-12-29T12:49:02;4.50;;;1.15;;
72261;SDS011;60173;52.112;8.648;2023-12-29T12:51:29;1.15;;;0.80;;
72261;SDS011;60173;52.112;8.648;2023-12-29T12:53:56;4.03;;;1.02;;
72261;SDS011;60173;52.112;8.648;2023-12-29T12:56:23;3.35;;;1.08;;
72261;SDS011;60173;52.112;8.648;2023-12-29T12:58:49;3.20;;;0.85;;
72261;SDS011;60173;52.112;8.648;2023-12-29T13:01:16;1.95;;;0.80;;
72261;SDS011;60173;52.112;8.648;2023-12-29T13:03:43;1.60;;;0.80;;
72261;SDS011;60173;52.112;8.648;2023-12-29T13:06:10;3.03;;;1.15;;
72261;SDS011;60173;52.112;8.648;2023-12-29T13:08:37;2.42;;;1.00;;
72261;SDS011;60173;52.112;8.648;2023-12-29T13:11:09;2.47;;;1.15;;
72261;SDS011;60173;52.112;8.648;2023-12-29T13:13:39;4.53;;;1.10;;
72261;SDS011;60173;52.112;8.648;2023-12-29T13:16:06;5.28;;;1.20;;
72261;SDS011;60173;52.112;8.648;2023-12-29T13:18:33;3.40;;;1.30;;
72261;SDS011;60173;52.112;8.648;2023-12-29T13:21:01;3.47;;;1.10;;
72261;SDS011;60173;52.112;8.648;2023-12-29T13:23:28;2.88;;;1.20;;
72261;SDS011;60173;52.112;8.648;2023-12-29T13:25:55;4.25;;;1.27;;
72261;SDS011;60173;52.112;8.648;2023-12-29T13:28:23;4.00;;;0.90;;
72261;SDS011;60173;52.112;8.648;2023-12-29T13:30:51;4.75;;;1.00;;
72261;SDS011;60173;52.112;8.648;2023-12-29T13:33:23;4.82;;;2.00;;
72261;SDS011;60173;52.112;8.648;2023-12-29T13:35:53;3.95;;;1.30;;
72261;SDS011;60173;52.112;8.648;2023-12-29T13:38:37;4.53;;;1.60;;
72261;SDS011;60173;52.112;8.648;2023-12-29T13:41:09;3.15;;;1.45;;
72261;SDS011;60173;52.112;8.648;2023-12-29T13:43:39;5.43;;;1.33;;
72261;SDS011;60173;52.112;8.648;2023-12-29T13:46:09;3.00;;;1.33;;
72261;SDS011;60173;52.112;8.648;2023-12-29T13:48:37;8.30;;;3.88;;
72261;SDS011;60173;52.112;8.648;2023-12-29T13:51:05;3.72;;;1.48;;
72261;SDS011;60173;52.112;8.648;2023-12-29T13:53:32;6.35;;;2.00;;
72261;SDS011;60173;52.112;8.648;2023-12-29T13:56:08;3.85;;;1.63;;
72261;SDS011;60173;52.112;8.648;2023-12-29T13:58:36;4.97;;;1.50;;
72261;SDS011;60173;52.112;8.648;2023-12-29T14:01:03;5.45;;;1.48;;
72261;SDS011;60173;52.112;8.648;2023-12-29T14:03:43;4.68;;;1.38;;
72261;SDS011;60173;52.112;8.648;2023-12-29T14:06:19;3.85;;;1.00;;
72261;SDS011;60173;52.112;8.648;2023-12-29T14:08:47;7.07;;;1.70;;
72261;SDS011;60173;52.112;8.648;2023-12-29T14:11:14;3.35;;;1.27;;
72261;SDS011;60173;52.112;8.648;2023-12-29T14:13:44;2.97;;;1.20;;
72261;SDS011;60173;52.112;8.648;2023-12-29T14:16:11;2.67;;;1.20;;
72261;SDS011;60173;52.112;8.648;2023-12-29T14:18:46;3.15;;;1.30;;
72261;SDS011;60173;52.112;8.648;2023-12-29T14:21:37;4.97;;;1.42;;
72261;SDS011;60173;52.112;8.648;2023-12-29T14:26:39;10.68;;;2.13;;
72261;SDS011;60173;52.112;8.648;2023-12-29T14:29:10;5.50;;;1.58;;
72261;SDS011;60173;52.112;8.648;2023-12-29T14:34:07;5.30;;;1.40;;
72261;SDS011;60173;52.112;8.648;2023-12-29T14:36:35;9.07;;;1.58;;
72261;SDS011;60173;52.112;8.648;2023-12-29T14:39:03;5.60;;;1.60;;
72261;SDS011;60173;52.112;8.648;2023-12-29T14:41:30;7.97;;;1.50;;
72261;SDS011;60173;52.112;8.648;2023-12-29T14:43:56;5.15;;;1.65;;
72261;SDS011;60173;52.112;8.648;2023-12-29T14:46:23;7.05;;;1.60;;
72261;SDS011;60173;52.112;8.648;2023-12-29T14:48:50;5.65;;;1.73;;
72261;SDS011;60173;52.112;8.648;2023-12-29T14:51:18;6.90;;;1.63;;
72261;SDS011;60173;52.112;8.648;2023-12-29T14:53:45;7.72;;;1.77;;
72261;SDS011;60173;52.112;8.648;2023-12-29T14:56:14;4.53;;;1.45;;
72261;SDS011;60173;52.112;8.648;2023-12-29T14:58:41;5.22;;;1.10;;
72261;SDS011;60173;52.112;8.648;2023-12-29T15:01:08;3.85;;;1.58;;
72261;SDS011;60173;52.112;8.648;2023-12-29T15:03:36;4.38;;;1.23;;
72261;SDS011;60173;52.112;8.648;2023-12-29T15:06:03;6.32;;;1.55;;
72261;SDS011;60173;52.112;8.648;2023-12-29T15:08:30;4.97;;;1.35;;
72261;SDS011;60173;52.112;8.648;2023-12-29T15:10:56;8.23;;;1.50;;